KEAN/EAN METAR and TAF weather

Enter ICAO airport designator
Station Type Date Time Source
KEAN METAR 2023/02/05 23:50 UTC NOAA

KEAN 052350Z AUTO 07007KT 10SM CLR 05/M02 A2974 RMK AO2 T00521020 10145 20052


Station Type Date Time Source
KEAN Decoded METAR 2023/02/05 23:50 UTC NOAA

Station name not available
Feb 05, 2023 - 06:50 PM EST / 2023.02.05 2350 UTC
Wind: from the ENE (070 degrees) at 8 MPH (7 KT):0
Visibility: 10 mile(s):0
Sky conditions: clear
Temperature: 41.4 F (5.2 C)
Dew Point: 28.4 F (-2.0 C)
Relative Humidity: 59%
Pressure (altimeter): 29.74 in. Hg (1007 hPa)
ob: KEAN 052350Z AUTO 07007KT 10SM CLR 05/M02 A2974 RMK AO2 T00521020 10145 20052
cycle: 0

Station Type Date Time Source
KEAN TAF UTC NOAA

Error!

Example: see airport list